sensor_id;sensor_type;location;lat;lon;timestamp;P1;durP1;ratioP1;P2;durP2;ratioP2
30763;SDS011;17497;51.476;7.770;2023-09-12T00:00:22;0.30;;;0.30;;
30763;SDS011;17497;51.476;7.770;2023-09-12T00:02:49;0.30;;;0.30;;
30763;SDS011;17497;51.476;7.770;2023-09-12T00:05:16;0.30;;;0.30;;
30763;SDS011;17497;51.476;7.770;2023-09-12T00:07:43;0.30;;;0.30;;
30763;SDS011;17497;51.476;7.770;2023-09-12T00:10:10;0.30;;;0.30;;
30763;SDS011;17497;51.476;7.770;2023-09-12T00:12:37;0.30;;;0.30;;
30763;SDS011;17497;51.476;7.770;2023-09-12T00:15:04;0.30;;;0.30;;
30763;SDS011;17497;51.476;7.770;2023-09-12T00:17:31;0.30;;;0.30;;
30763;SDS011;17497;51.476;7.770;2023-09-12T00:19:57;0.30;;;0.30;;
30763;SDS011;17497;51.476;7.770;2023-09-12T00:22:24;0.30;;;0.30;;
30763;SDS011;17497;51.476;7.770;2023-09-12T00:24:51;0.25;;;0.25;;
30763;SDS011;17497;51.476;7.770;2023-09-12T00:27:17;0.30;;;0.30;;
30763;SDS011;17497;51.476;7.770;2023-09-12T00:29:44;0.30;;;0.30;;
30763;SDS011;17497;51.476;7.770;2023-09-12T00:32:11;0.20;;;0.20;;
30763;SDS011;17497;51.476;7.770;2023-09-12T00:34:38;0.20;;;0.20;;
30763;SDS011;17497;51.476;7.770;2023-09-12T00:37:05;0.30;;;0.30;;
30763;SDS011;17497;51.476;7.770;2023-09-12T00:39:32;0.20;;;0.20;;
30763;SDS011;17497;51.476;7.770;2023-09-12T00:41:59;0.30;;;0.30;;
30763;SDS011;17497;51.476;7.770;2023-09-12T00:44:26;0.30;;;0.30;;
30763;SDS011;17497;51.476;7.770;2023-09-12T00:46:52;0.20;;;0.20;;
30763;SDS011;17497;51.476;7.770;2023-09-12T00:49:20;0.30;;;0.30;;
30763;SDS011;17497;51.476;7.770;2023-09-12T00:51:48;0.30;;;0.30;;
30763;SDS011;17497;51.476;7.770;2023-09-12T00:54:17;0.20;;;0.20;;
30763;SDS011;17497;51.476;7.770;2023-09-12T00:56:44;0.30;;;0.30;;
30763;SDS011;17497;51.476;7.770;2023-09-12T00:59:11;0.20;;;0.20;;
30763;SDS011;17497;51.476;7.770;2023-09-12T01:01:41;0.30;;;0.30;;
30763;SDS011;17497;51.476;7.770;2023-09-12T01:04:09;0.30;;;0.30;;
30763;SDS011;17497;51.476;7.770;2023-09-12T01:06:53;0.25;;;0.25;;
30763;SDS011;17497;51.476;7.770;2023-09-12T01:09:20;0.28;;;0.28;;
30763;SDS011;17497;51.476;7.770;2023-09-12T01:11:47;0.30;;;0.30;;
30763;SDS011;17497;51.476;7.770;2023-09-12T01:14:14;0.30;;;0.30;;
30763;SDS011;17497;51.476;7.770;2023-09-12T01:16:43;0.20;;;0.20;;
30763;SDS011;17497;51.476;7.770;2023-09-12T01:19:10;0.20;;;0.20;;
30763;SDS011;17497;51.476;7.770;2023-09-12T01:29:55;0.30;;;0.30;;
30763;SDS011;17497;51.476;7.770;2023-09-12T01:32:23;0.30;;;0.30;;
30763;SDS011;17497;51.476;7.770;2023-09-12T01:34:50;0.25;;;0.25;;
30763;SDS011;17497;51.476;7.770;2023-09-12T01:37:17;0.30;;;0.30;;
30763;SDS011;17497;51.476;7.770;2023-09-12T01:39:44;0.30;;;0.30;;
30763;SDS011;17497;51.476;7.770;2023-09-12T01:42:12;0.20;;;0.20;;
30763;SDS011;17497;51.476;7.770;2023-09-12T01:44:43;0.30;;;0.30;;
30763;SDS011;17497;51.476;7.770;2023-09-12T01:47:11;0.30;;;0.30;;
30763;SDS011;17497;51.476;7.770;2023-09-12T01:49:40;0.30;;;0.30;;
30763;SDS011;17497;51.476;7.770;2023-09-12T01:52:11;0.30;;;0.30;;
30763;SDS011;17497;51.476;7.770;2023-09-12T01:54:40;0.30;;;0.30;;
30763;SDS011;17497;51.476;7.770;2023-09-12T01:57:08;0.30;;;0.30;;
30763;SDS011;17497;51.476;7.770;2023-09-12T01:59:36;0.30;;;0.30;;
30763;SDS011;17497;51.476;7.770;2023-09-12T02:02:03;0.20;;;0.20;;
30763;SDS011;17497;51.476;7.770;2023-09-12T02:04:32;0.30;;;0.30;;
30763;SDS011;17497;51.476;7.770;2023-09-12T02:06:59;0.30;;;0.30;;
30763;SDS011;17497;51.476;7.770;2023-09-12T02:09:25;0.30;;;0.30;;
30763;SDS011;17497;51.476;7.770;2023-09-12T02:11:52;0.30;;;0.30;;
30763;SDS011;17497;51.476;7.770;2023-09-12T02:14:19;0.30;;;0.30;;
30763;SDS011;17497;51.476;7.770;2023-09-12T02:16:46;0.30;;;0.30;;
30763;SDS011;17497;51.476;7.770;2023-09-12T02:19:13;0.30;;;0.30;;
30763;SDS011;17497;51.476;7.770;2023-09-12T02:21:42;0.30;;;0.30;;
30763;SDS011;17497;51.476;7.770;2023-09-12T02:24:09;0.30;;;0.30;;
30763;SDS011;17497;51.476;7.770;2023-09-12T02:26:36;0.20;;;0.20;;
30763;SDS011;17497;51.476;7.770;2023-09-12T02:29:03;0.20;;;0.20;;
30763;SDS011;17497;51.476;7.770;2023-09-12T02:31:32;0.22;;;0.22;;
30763;SDS011;17497;51.476;7.770;2023-09-12T02:33:59;0.30;;;0.30;;
30763;SDS011;17497;51.476;7.770;2023-09-12T02:36:29;0.30;;;0.30;;
30763;SDS011;17497;51.476;7.770;2023-09-12T02:39:00;0.30;;;0.30;;
30763;SDS011;17497;51.476;7.770;2023-09-12T02:41:27;0.30;;;0.30;;
30763;SDS011;17497;51.476;7.770;2023-09-12T02:43:54;0.30;;;0.30;;
30763;SDS011;17497;51.476;7.770;2023-09-12T02:46:21;0.30;;;0.30;;
30763;SDS011;17497;51.476;7.770;2023-09-12T02:48:48;0.20;;;0.20;;
30763;SDS011;17497;51.476;7.770;2023-09-12T02:51:15;0.30;;;0.30;;
30763;SDS011;17497;51.476;7.770;2023-09-12T02:53:42;0.30;;;0.30;;
30763;SDS011;17497;51.476;7.770;2023-09-12T02:56:09;0.30;;;0.30;;
30763;SDS011;17497;51.476;7.770;2023-09-12T02:58:35;0.20;;;0.20;;
30763;SDS011;17497;51.476;7.770;2023-09-12T03:01:02;0.30;;;0.30;;
30763;SDS011;17497;51.476;7.770;2023-09-12T03:03:31;0.30;;;0.30;;
30763;SDS011;17497;51.476;7.770;2023-09-12T03:06:02;0.30;;;0.30;;
30763;SDS011;17497;51.476;7.770;2023-09-12T03:08:36;0.30;;;0.30;;
30763;SDS011;17497;51.476;7.770;2023-09-12T03:11:03;0.30;;;0.30;;
30763;SDS011;17497;51.476;7.770;2023-09-12T03:13:36;0.30;;;0.30;;
30763;SDS011;17497;51.476;7.770;2023-09-12T03:16:10;0.28;;;0.28;;
30763;SDS011;17497;51.476;7.770;2023-09-12T03:18:37;0.25;;;0.25;;
30763;SDS011;17497;51.476;7.770;2023-09-12T03:21:05;0.30;;;0.30;;
30763;SDS011;17497;51.476;7.770;2023-09-12T03:23:35;0.20;;;0.20;;
30763;SDS011;17497;51.476;7.770;2023-09-12T03:26:05;0.30;;;0.30;;
30763;SDS011;17497;51.476;7.770;2023-09-12T03:28:32;0.30;;;0.30;;
30763;SDS011;17497;51.476;7.770;2023-09-12T03:31:06;0.30;;;0.30;;
30763;SDS011;17497;51.476;7.770;2023-09-12T03:33:35;0.40;;;0.40;;
30763;SDS011;17497;51.476;7.770;2023-09-12T03:36:02;0.30;;;0.30;;
30763;SDS011;17497;51.476;7.770;2023-09-12T03:38:29;0.30;;;0.30;;
30763;SDS011;17497;51.476;7.770;2023-09-12T03:40:59;0.30;;;0.30;;
30763;SDS011;17497;51.476;7.770;2023-09-12T03:43:26;0.30;;;0.30;;
30763;SDS011;17497;51.476;7.770;2023-09-12T03:45:53;0.30;;;0.30;;
30763;SDS011;17497;51.476;7.770;2023-09-12T03:48:21;0.30;;;0.30;;
30763;SDS011;17497;51.476;7.770;2023-09-12T03:50:48;0.30;;;0.30;;
30763;SDS011;17497;51.476;7.770;2023-09-12T03:53:15;0.30;;;0.30;;
30763;SDS011;17497;51.476;7.770;2023-09-12T03:55:42;0.30;;;0.30;;
30763;SDS011;17497;51.476;7.770;2023-09-12T03:58:09;0.30;;;0.30;;
30763;SDS011;17497;51.476;7.770;2023-09-12T04:00:39;0.30;;;0.30;;
30763;SDS011;17497;51.476;7.770;2023-09-12T04:03:06;0.30;;;0.30;;
30763;SDS011;17497;51.476;7.770;2023-09-12T04:05:33;0.30;;;0.30;;
30763;SDS011;17497;51.476;7.770;2023-09-12T04:08:02;0.28;;;0.28;;
30763;SDS011;17497;51.476;7.770;2023-09-12T04:10:29;0.30;;;0.30;;
30763;SDS011;17497;51.476;7.770;2023-09-12T04:12:56;0.30;;;0.30;;
30763;SDS011;17497;51.476;7.770;2023-09-12T04:15:23;0.30;;;0.30;;
30763;SDS011;17497;51.476;7.770;2023-09-12T04:17:50;0.40;;;0.40;;
30763;SDS011;17497;51.476;7.770;2023-09-12T04:20:16;0.40;;;0.40;;
30763;SDS011;17497;51.476;7.770;2023-09-12T04:22:43;0.30;;;0.30;;
30763;SDS011;17497;51.476;7.770;2023-09-12T04:25:10;0.30;;;0.30;;
30763;SDS011;17497;51.476;7.770;2023-09-12T04:27:37;0.30;;;0.30;;
30763;SDS011;17497;51.476;7.770;2023-09-12T04:30:04;0.30;;;0.30;;
30763;SDS011;17497;51.476;7.770;2023-09-12T04:32:31;0.30;;;0.30;;
30763;SDS011;17497;51.476;7.770;2023-09-12T04:34:58;0.30;;;0.30;;
30763;SDS011;17497;51.476;7.770;2023-09-12T04:37:26;0.30;;;0.30;;
30763;SDS011;17497;51.476;7.770;2023-09-12T04:39:52;0.30;;;0.30;;
30763;SDS011;17497;51.476;7.770;2023-09-12T04:42:19;0.30;;;0.30;;
30763;SDS011;17497;51.476;7.770;2023-09-12T04:44:46;0.30;;;0.30;;
30763;SDS011;17497;51.476;7.770;2023-09-12T04:47:14;0.30;;;0.30;;
30763;SDS011;17497;51.476;7.770;2023-09-12T04:49:43;0.20;;;0.20;;
30763;SDS011;17497;51.476;7.770;2023-09-12T04:52:11;0.30;;;0.30;;
30763;SDS011;17497;51.476;7.770;2023-09-12T04:54:38;0.30;;;0.30;;
30763;SDS011;17497;51.476;7.770;2023-09-12T04:57:04;0.30;;;0.30;;
30763;SDS011;17497;51.476;7.770;2023-09-12T04:59:32;0.28;;;0.28;;
30763;SDS011;17497;51.476;7.770;2023-09-12T05:01:58;0.30;;;0.30;;
30763;SDS011;17497;51.476;7.770;2023-09-12T05:04:28;0.20;;;0.20;;
30763;SDS011;17497;51.476;7.770;2023-09-12T05:06:54;0.30;;;0.30;;
30763;SDS011;17497;51.476;7.770;2023-09-12T05:09:23;0.20;;;0.20;;
30763;SDS011;17497;51.476;7.770;2023-09-12T05:11:50;0.30;;;0.30;;
30763;SDS011;17497;51.476;7.770;2023-09-12T05:14:17;0.22;;;0.22;;
30763;SDS011;17497;51.476;7.770;2023-09-12T05:16:44;0.30;;;0.30;;
30763;SDS011;17497;51.476;7.770;2023-09-12T05:19:12;0.30;;;0.30;;
30763;SDS011;17497;51.476;7.770;2023-09-12T05:21:39;0.30;;;0.30;;
30763;SDS011;17497;51.476;7.770;2023-09-12T05:24:06;0.22;;;0.22;;
30763;SDS011;17497;51.476;7.770;2023-09-12T05:26:33;0.30;;;0.30;;
30763;SDS011;17497;51.476;7.770;2023-09-12T05:29:00;0.20;;;0.20;;
30763;SDS011;17497;51.476;7.770;2023-09-12T05:31:27;0.30;;;0.30;;
30763;SDS011;17497;51.476;7.770;2023-09-12T05:33:54;0.30;;;0.30;;
30763;SDS011;17497;51.476;7.770;2023-09-12T05:36:20;0.30;;;0.30;;
30763;SDS011;17497;51.476;7.770;2023-09-12T05:38:47;0.30;;;0.30;;
30763;SDS011;17497;51.476;7.770;2023-09-12T05:41:14;0.30;;;0.30;;
30763;SDS011;17497;51.476;7.770;2023-09-12T05:43:42;0.30;;;0.30;;
30763;SDS011;17497;51.476;7.770;2023-09-12T05:46:09;0.30;;;0.30;;
30763;SDS011;17497;51.476;7.770;2023-09-12T05:48:36;0.30;;;0.30;;
30763;SDS011;17497;51.476;7.770;2023-09-12T05:51:03;0.30;;;0.30;;
30763;SDS011;17497;51.476;7.770;2023-09-12T05:53:32;0.30;;;0.30;;
30763;SDS011;17497;51.476;7.770;2023-09-12T05:55:59;0.30;;;0.30;;
30763;SDS011;17497;51.476;7.770;2023-09-12T05:58:26;0.37;;;0.37;;
30763;SDS011;17497;51.476;7.770;2023-09-12T06:00:53;0.30;;;0.30;;
30763;SDS011;17497;51.476;7.770;2023-09-12T06:03:20;0.30;;;0.30;;
30763;SDS011;17497;51.476;7.770;2023-09-12T06:08:15;0.30;;;0.30;;
30763;SDS011;17497;51.476;7.770;2023-09-12T06:10:51;0.40;;;0.40;;
30763;SDS011;17497;51.476;7.770;2023-09-12T06:13:25;0.30;;;0.30;;
30763;SDS011;17497;51.476;7.770;2023-09-12T06:15:58;0.40;;;0.40;;
30763;SDS011;17497;51.476;7.770;2023-09-12T06:18:25;0.30;;;0.30;;
30763;SDS011;17497;51.476;7.770;2023-09-12T06:20:55;0.38;;;0.38;;
30763;SDS011;17497;51.476;7.770;2023-09-12T06:23:22;0.40;;;0.40;;
30763;SDS011;17497;51.476;7.770;2023-09-12T06:25:49;0.30;;;0.30;;
30763;SDS011;17497;51.476;7.770;2023-09-12T06:28:29;0.30;;;0.30;;
30763;SDS011;17497;51.476;7.770;2023-09-12T06:30:57;0.40;;;0.40;;
30763;SDS011;17497;51.476;7.770;2023-09-12T06:33:25;0.30;;;0.30;;
30763;SDS011;17497;51.476;7.770;2023-09-12T06:35:53;0.40;;;0.40;;
30763;SDS011;17497;51.476;7.770;2023-09-12T06:38:21;0.28;;;0.28;;
30763;SDS011;17497;51.476;7.770;2023-09-12T06:40:48;0.30;;;0.30;;
30763;SDS011;17497;51.476;7.770;2023-09-12T06:43:15;0.40;;;0.40;;
30763;SDS011;17497;51.476;7.770;2023-09-12T06:45:42;0.30;;;0.30;;
30763;SDS011;17497;51.476;7.770;2023-09-12T06:48:09;0.30;;;0.30;;
30763;SDS011;17497;51.476;7.770;2023-09-12T06:50:37;0.38;;;0.38;;
30763;SDS011;17497;51.476;7.770;2023-09-12T06:53:07;0.30;;;0.30;;
30763;SDS011;17497;51.476;7.770;2023-09-12T06:55:34;0.40;;;0.40;;
30763;SDS011;17497;51.476;7.770;2023-09-12T06:58:01;0.33;;;0.33;;
30763;SDS011;17497;51.476;7.770;2023-09-12T07:00:28;0.40;;;0.40;;
30763;SDS011;17497;51.476;7.770;2023-09-12T07:02:55;0.38;;;0.38;;
30763;SDS011;17497;51.476;7.770;2023-09-12T07:05:22;0.30;;;0.30;;
30763;SDS011;17497;51.476;7.770;2023-09-12T07:07:49;0.40;;;0.40;;
30763;SDS011;17497;51.476;7.770;2023-09-12T07:10:16;0.30;;;0.30;;
30763;SDS011;17497;51.476;7.770;2023-09-12T07:12:52;0.30;;;0.30;;
30763;SDS011;17497;51.476;7.770;2023-09-12T07:15:20;0.30;;;0.30;;
30763;SDS011;17497;51.476;7.770;2023-09-12T07:17:47;0.30;;;0.30;;
30763;SDS011;17497;51.476;7.770;2023-09-12T07:20:14;0.30;;;0.30;;
30763;SDS011;17497;51.476;7.770;2023-09-12T07:22:42;0.30;;;0.30;;
30763;SDS011;17497;51.476;7.770;2023-09-12T07:25:09;0.40;;;0.40;;
30763;SDS011;17497;51.476;7.770;2023-09-12T07:27:38;0.30;;;0.30;;
30763;SDS011;17497;51.476;7.770;2023-09-12T07:30:05;0.30;;;0.30;;
30763;SDS011;17497;51.476;7.770;2023-09-12T07:32:33;0.30;;;0.30;;
30763;SDS011;17497;51.476;7.770;2023-09-12T07:35:00;0.33;;;0.33;;
30763;SDS011;17497;51.476;7.770;2023-09-12T07:37:27;0.30;;;0.30;;
30763;SDS011;17497;51.476;7.770;2023-09-12T07:39:54;0.40;;;0.40;;
30763;SDS011;17497;51.476;7.770;2023-09-12T07:42:22;0.40;;;0.40;;
30763;SDS011;17497;51.476;7.770;2023-09-12T07:44:50;0.30;;;0.30;;
30763;SDS011;17497;51.476;7.770;2023-09-12T07:47:17;0.40;;;0.40;;
30763;SDS011;17497;51.476;7.770;2023-09-12T07:49:45;0.30;;;0.30;;
30763;SDS011;17497;51.476;7.770;2023-09-12T07:52:11;0.30;;;0.30;;
30763;SDS011;17497;51.476;7.770;2023-09-12T07:54:41;0.30;;;0.30;;
30763;SDS011;17497;51.476;7.770;2023-09-12T07:57:08;0.30;;;0.30;;
30763;SDS011;17497;51.476;7.770;2023-09-12T07:59:34;0.40;;;0.40;;
30763;SDS011;17497;51.476;7.770;2023-09-12T08:02:01;0.35;;;0.35;;
30763;SDS011;17497;51.476;7.770;2023-09-12T08:04:28;0.40;;;0.40;;
30763;SDS011;17497;51.476;7.770;2023-09-12T08:06:55;0.30;;;0.30;;
30763;SDS011;17497;51.476;7.770;2023-09-12T08:09:36;0.30;;;0.30;;
30763;SDS011;17497;51.476;7.770;2023-09-12T08:12:37;0.30;;;0.30;;
30763;SDS011;17497;51.476;7.770;2023-09-12T08:15:08;0.30;;;0.30;;
30763;SDS011;17497;51.476;7.770;2023-09-12T08:17:35;0.30;;;0.30;;
30763;SDS011;17497;51.476;7.770;2023-09-12T08:20:02;0.30;;;0.30;;
30763;SDS011;17497;51.476;7.770;2023-09-12T08:22:29;0.30;;;0.30;;
30763;SDS011;17497;51.476;7.770;2023-09-12T08:24:55;0.30;;;0.30;;
30763;SDS011;17497;51.476;7.770;2023-09-12T08:27:22;0.30;;;0.30;;
30763;SDS011;17497;51.476;7.770;2023-09-12T08:29:52;0.30;;;0.30;;
30763;SDS011;17497;51.476;7.770;2023-09-12T08:32:19;0.30;;;0.30;;
30763;SDS011;17497;51.476;7.770;2023-09-12T08:34:46;0.30;;;0.30;;
30763;SDS011;17497;51.476;7.770;2023-09-12T08:37:12;0.30;;;0.30;;
30763;SDS011;17497;51.476;7.770;2023-09-12T08:39:43;0.30;;;0.30;;
30763;SDS011;17497;51.476;7.770;2023-09-12T08:42:12;0.30;;;0.30;;
30763;SDS011;17497;51.476;7.770;2023-09-12T08:44:41;0.30;;;0.30;;
30763;SDS011;17497;51.476;7.770;2023-09-12T08:49:37;0.30;;;0.30;;
30763;SDS011;17497;51.476;7.770;2023-09-12T08:52:04;0.30;;;0.30;;
30763;SDS011;17497;51.476;7.770;2023-09-12T08:54:31;0.40;;;0.40;;
30763;SDS011;17497;51.476;7.770;2023-09-12T08:57:02;0.20;;;0.20;;
30763;SDS011;17497;51.476;7.770;2023-09-12T08:59:34;0.30;;;0.30;;
30763;SDS011;17497;51.476;7.770;2023-09-12T09:02:01;0.30;;;0.30;;
30763;SDS011;17497;51.476;7.770;2023-09-12T09:04:30;0.30;;;0.30;;
30763;SDS011;17497;51.476;7.770;2023-09-12T09:07:08;0.30;;;0.30;;
30763;SDS011;17497;51.476;7.770;2023-09-12T09:09:38;0.30;;;0.30;;
30763;SDS011;17497;51.476;7.770;2023-09-12T09:12:08;0.30;;;0.30;;
30763;SDS011;17497;51.476;7.770;2023-09-12T09:14:36;0.30;;;0.30;;
30763;SDS011;17497;51.476;7.770;2023-09-12T09:17:03;0.30;;;0.30;;
30763;SDS011;17497;51.476;7.770;2023-09-12T09:19:40;0.30;;;0.30;;
30763;SDS011;17497;51.476;7.770;2023-09-12T09:22:08;0.20;;;0.20;;
30763;SDS011;17497;51.476;7.770;2023-09-12T09:24:34;0.30;;;0.30;;
30763;SDS011;17497;51.476;7.770;2023-09-12T09:27:01;0.30;;;0.30;;
30763;SDS011;17497;51.476;7.770;2023-09-12T09:29:28;0.30;;;0.30;;
30763;SDS011;17497;51.476;7.770;2023-09-12T09:31:58;0.30;;;0.30;;
30763;SDS011;17497;51.476;7.770;2023-09-12T09:34:26;0.30;;;0.30;;
30763;SDS011;17497;51.476;7.770;2023-09-12T09:36:57;0.22;;;0.22;;
30763;SDS011;17497;51.476;7.770;2023-09-12T09:39:28;0.30;;;0.30;;
30763;SDS011;17497;51.476;7.770;2023-09-12T09:41:56;0.30;;;0.30;;
30763;SDS011;17497;51.476;7.770;2023-09-12T09:49:33;0.30;;;0.30;;
30763;SDS011;17497;51.476;7.770;2023-09-12T09:52:02;0.30;;;0.30;;
30763;SDS011;17497;51.476;7.770;2023-09-12T09:54:42;0.30;;;0.30;;
30763;SDS011;17497;51.476;7.770;2023-09-12T09:57:10;0.30;;;0.30;;
30763;SDS011;17497;51.476;7.770;2023-09-12T09:59:37;0.20;;;0.20;;
30763;SDS011;17497;51.476;7.770;2023-09-12T10:02:04;0.30;;;0.30;;
30763;SDS011;17497;51.476;7.770;2023-09-12T10:04:35;0.30;;;0.30;;
30763;SDS011;17497;51.476;7.770;2023-09-12T10:07:05;0.30;;;0.30;;
30763;SDS011;17497;51.476;7.770;2023-09-12T10:09:35;0.30;;;0.30;;
30763;SDS011;17497;51.476;7.770;2023-09-12T10:12:03;0.30;;;0.30;;
30763;SDS011;17497;51.476;7.770;2023-09-12T10:14:30;0.30;;;0.30;;
30763;SDS011;17497;51.476;7.770;2023-09-12T10:17:00;0.30;;;0.30;;
30763;SDS011;17497;51.476;7.770;2023-09-12T10:19:37;0.30;;;0.30;;
30763;SDS011;17497;51.476;7.770;2023-09-12T10:22:08;0.30;;;0.30;;
30763;SDS011;17497;51.476;7.770;2023-09-12T10:24:37;0.22;;;0.22;;
30763;SDS011;17497;51.476;7.770;2023-09-12T10:27:06;0.30;;;0.30;;
30763;SDS011;17497;51.476;7.770;2023-09-12T10:29:35;0.30;;;0.30;;
30763;SDS011;17497;51.476;7.770;2023-09-12T10:32:02;0.30;;;0.30;;
30763;SDS011;17497;51.476;7.770;2023-09-12T10:34:30;0.30;;;0.30;;
30763;SDS011;17497;51.476;7.770;2023-09-12T10:36:58;0.20;;;0.20;;
30763;SDS011;17497;51.476;7.770;2023-09-12T10:39:31;0.20;;;0.20;;
30763;SDS011;17497;51.476;7.770;2023-09-12T10:41:59;0.28;;;0.28;;
30763;SDS011;17497;51.476;7.770;2023-09-12T10:44:30;0.30;;;0.30;;
30763;SDS011;17497;51.476;7.770;2023-09-12T10:46:58;0.20;;;0.20;;
30763;SDS011;17497;51.476;7.770;2023-09-12T10:49:28;0.30;;;0.30;;
30763;SDS011;17497;51.476;7.770;2023-09-12T10:51:56;0.30;;;0.30;;
30763;SDS011;17497;51.476;7.770;2023-09-12T10:54:37;0.30;;;0.30;;
30763;SDS011;17497;51.476;7.770;2023-09-12T10:57:11;0.20;;;0.20;;
30763;SDS011;17497;51.476;7.770;2023-09-12T11:05:02;0.30;;;0.30;;
30763;SDS011;17497;51.476;7.770;2023-09-12T11:07:34;0.30;;;0.30;;
30763;SDS011;17497;51.476;7.770;2023-09-12T11:12:42;0.20;;;0.20;;
30763;SDS011;17497;51.476;7.770;2023-09-12T11:15:09;0.20;;;0.20;;
30763;SDS011;17497;51.476;7.770;2023-09-12T11:20:07;0.20;;;0.20;;
30763;SDS011;17497;51.476;7.770;2023-09-12T11:22:38;0.20;;;0.20;;
30763;SDS011;17497;51.476;7.770;2023-09-12T11:30:26;0.20;;;0.20;;
30763;SDS011;17497;51.476;7.770;2023-09-12T11:32:57;0.20;;;0.20;;
30763;SDS011;17497;51.476;7.770;2023-09-12T11:35:29;0.20;;;0.20;;
30763;SDS011;17497;51.476;7.770;2023-09-12T11:38:01;0.20;;;0.20;;
30763;SDS011;17497;51.476;7.770;2023-09-12T11:42:59;0.20;;;0.20;;
30763;SDS011;17497;51.476;7.770;2023-09-12T11:45:26;0.20;;;0.20;;
30763;SDS011;17497;51.476;7.770;2023-09-12T11:47:55;0.20;;;0.20;;
30763;SDS011;17497;51.476;7.770;2023-09-12T11:50:26;0.20;;;0.20;;
30763;SDS011;17497;51.476;7.770;2023-09-12T11:53:04;0.20;;;0.20;;
30763;SDS011;17497;51.476;7.770;2023-09-12T11:55:48;0.10;;;0.10;;
30763;SDS011;17497;51.476;7.770;2023-09-12T11:58:19;0.20;;;0.20;;
30763;SDS011;17497;51.476;7.770;2023-09-12T12:00:49;0.20;;;0.20;;
30763;SDS011;17497;51.476;7.770;2023-09-12T12:03:18;0.20;;;0.20;;
30763;SDS011;17497;51.476;7.770;2023-09-12T12:05:46;0.20;;;0.20;;
30763;SDS011;17497;51.476;7.770;2023-09-12T12:08:14;0.20;;;0.20;;
30763;SDS011;17497;51.476;7.770;2023-09-12T12:10:57;0.20;;;0.20;;
30763;SDS011;17497;51.476;7.770;2023-09-12T12:13:27;0.20;;;0.20;;
30763;SDS011;17497;51.476;7.770;2023-09-12T12:16:14;0.20;;;0.20;;
30763;SDS011;17497;51.476;7.770;2023-09-12T12:18:42;0.20;;;0.20;;
30763;SDS011;17497;51.476;7.770;2023-09-12T12:21:09;0.20;;;0.20;;
30763;SDS011;17497;51.476;7.770;2023-09-12T12:23:35;0.20;;;0.20;;
30763;SDS011;17497;51.476;7.770;2023-09-12T12:26:11;0.13;;;0.13;;
30763;SDS011;17497;51.476;7.770;2023-09-12T12:28:38;0.20;;;0.20;;
30763;SDS011;17497;51.476;7.770;2023-09-12T12:31:07;0.20;;;0.20;;
30763;SDS011;17497;51.476;7.770;2023-09-12T12:33:34;0.20;;;0.20;;
30763;SDS011;17497;51.476;7.770;2023-09-12T12:36:21;0.20;;;0.20;;
30763;SDS011;17497;51.476;7.770;2023-09-12T12:38:48;0.13;;;0.13;;
30763;SDS011;17497;51.476;7.770;2023-09-12T12:41:36;0.20;;;0.20;;
30763;SDS011;17497;51.476;7.770;2023-09-12T12:44:16;0.20;;;0.20;;
30763;SDS011;17497;51.476;7.770;2023-09-12T12:46:47;0.20;;;0.20;;
30763;SDS011;17497;51.476;7.770;2023-09-12T12:49:21;0.20;;;0.20;;
30763;SDS011;17497;51.476;7.770;2023-09-12T12:51:49;0.20;;;0.20;;
30763;SDS011;17497;51.476;7.770;2023-09-12T12:56:43;0.20;;;0.20;;
30763;SDS011;17497;51.476;7.770;2023-09-12T12:59:11;0.20;;;0.20;;
30763;SDS011;17497;51.476;7.770;2023-09-12T13:01:38;0.20;;;0.20;;
30763;SDS011;17497;51.476;7.770;2023-09-12T13:04:06;0.20;;;0.20;;
30763;SDS011;17497;51.476;7.770;2023-09-12T13:06:34;0.17;;;0.17;;
30763;SDS011;17497;51.476;7.770;2023-09-12T13:09:04;0.20;;;0.20;;
30763;SDS011;17497;51.476;7.770;2023-09-12T13:11:32;0.20;;;0.20;;
30763;SDS011;17497;51.476;7.770;2023-09-12T13:14:01;0.20;;;0.20;;
30763;SDS011;17497;51.476;7.770;2023-09-12T13:16:29;0.20;;;0.20;;
30763;SDS011;17497;51.476;7.770;2023-09-12T13:18:56;0.20;;;0.20;;
30763;SDS011;17497;51.476;7.770;2023-09-12T13:23:49;0.20;;;0.20;;
30763;SDS011;17497;51.476;7.770;2023-09-12T13:26:16;0.20;;;0.20;;
30763;SDS011;17497;51.476;7.770;2023-09-12T13:28:43;0.20;;;0.20;;
30763;SDS011;17497;51.476;7.770;2023-09-12T13:36:12;0.20;;;0.20;;
30763;SDS011;17497;51.476;7.770;2023-09-12T13:38:39;0.20;;;0.20;;
30763;SDS011;17497;51.476;7.770;2023-09-12T13:43:33;0.20;;;0.20;;
30763;SDS011;17497;51.476;7.770;2023-09-12T13:46:00;0.20;;;0.20;;
30763;SDS011;17497;51.476;7.770;2023-09-12T13:50:53;0.20;;;0.20;;
30763;SDS011;17497;51.476;7.770;2023-09-12T13:53:20;0.20;;;0.20;;
30763;SDS011;17497;51.476;7.770;2023-09-12T13:55:47;0.20;;;0.20;;
30763;SDS011;17497;51.476;7.770;2023-09-12T13:58:14;0.20;;;0.20;;
30763;SDS011;17497;51.476;7.770;2023-09-12T14:00:41;0.20;;;0.20;;
30763;SDS011;17497;51.476;7.770;2023-09-12T14:05:35;0.20;;;0.20;;
30763;SDS011;17497;51.476;7.770;2023-09-12T14:08:03;0.20;;;0.20;;
30763;SDS011;17497;51.476;7.770;2023-09-12T14:10:30;0.20;;;0.20;;
30763;SDS011;17497;51.476;7.770;2023-09-12T14:13:03;0.15;;;0.15;;
30763;SDS011;17497;51.476;7.770;2023-09-12T14:15:47;0.20;;;0.20;;
30763;SDS011;17497;51.476;7.770;2023-09-12T14:18:16;0.20;;;0.20;;
30763;SDS011;17497;51.476;7.770;2023-09-12T14:20:44;0.20;;;0.20;;
30763;SDS011;17497;51.476;7.770;2023-09-12T14:23:13;0.20;;;0.20;;
30763;SDS011;17497;51.476;7.770;2023-09-12T14:25:41;0.10;;;0.10;;
30763;SDS011;17497;51.476;7.770;2023-09-12T14:28:08;0.10;;;0.10;;
30763;SDS011;17497;51.476;7.770;2023-09-12T14:30:37;0.10;;;0.10;;
30763;SDS011;17497;51.476;7.770;2023-09-12T14:33:04;0.10;;;0.10;;
30763;SDS011;17497;51.476;7.770;2023-09-12T14:35:31;0.20;;;0.20;;
30763;SDS011;17497;51.476;7.770;2023-09-12T14:40:25;0.20;;;0.20;;
30763;SDS011;17497;51.476;7.770;2023-09-12T14:42:53;0.20;;;0.20;;
30763;SDS011;17497;51.476;7.770;2023-09-12T14:45:21;0.20;;;0.20;;
30763;SDS011;17497;51.476;7.770;2023-09-12T14:47:48;0.20;;;0.20;;
30763;SDS011;17497;51.476;7.770;2023-09-12T14:50:15;0.20;;;0.20;;
30763;SDS011;17497;51.476;7.770;2023-09-12T14:52:42;0.20;;;0.20;;
30763;SDS011;17497;51.476;7.770;2023-09-12T14:57:36;0.20;;;0.20;;
30763;SDS011;17497;51.476;7.770;2023-09-12T15:00:03;0.20;;;0.20;;
30763;SDS011;17497;51.476;7.770;2023-09-12T15:02:31;0.20;;;0.20;;
30763;SDS011;17497;51.476;7.770;2023-09-12T15:04:59;0.20;;;0.20;;
30763;SDS011;17497;51.476;7.770;2023-09-12T15:07:27;0.30;;;0.30;;
30763;SDS011;17497;51.476;7.770;2023-09-12T15:09:57;0.20;;;0.20;;
30763;SDS011;17497;51.476;7.770;2023-09-12T15:12:24;0.20;;;0.20;;
30763;SDS011;17497;51.476;7.770;2023-09-12T15:14:51;0.30;;;0.30;;
30763;SDS011;17497;51.476;7.770;2023-09-12T15:17:18;0.20;;;0.20;;
30763;SDS011;17497;51.476;7.770;2023-09-12T15:22:11;0.20;;;0.20;;
30763;SDS011;17497;51.476;7.770;2023-09-12T15:24:42;0.20;;;0.20;;
30763;SDS011;17497;51.476;7.770;2023-09-12T15:27:09;0.20;;;0.20;;
30763;SDS011;17497;51.476;7.770;2023-09-12T15:29:36;0.20;;;0.20;;
30763;SDS011;17497;51.476;7.770;2023-09-12T15:32:02;0.20;;;0.20;;
30763;SDS011;17497;51.476;7.770;2023-09-12T15:34:32;0.20;;;0.20;;
30763;SDS011;17497;51.476;7.770;2023-09-12T15:37:09;0.20;;;0.20;;
30763;SDS011;17497;51.476;7.770;2023-09-12T15:39:40;0.20;;;0.20;;
30763;SDS011;17497;51.476;7.770;2023-09-12T15:44:33;0.20;;;0.20;;
30763;SDS011;17497;51.476;7.770;2023-09-12T15:47:00;0.20;;;0.20;;
30763;SDS011;17497;51.476;7.770;2023-09-12T15:49:45;0.10;;;0.10;;
30763;SDS011;17497;51.476;7.770;2023-09-12T15:52:11;0.20;;;0.20;;
30763;SDS011;17497;51.476;7.770;2023-09-12T15:54:38;0.20;;;0.20;;
30763;SDS011;17497;51.476;7.770;2023-09-12T15:57:05;0.10;;;0.10;;
30763;SDS011;17497;51.476;7.770;2023-09-12T15:59:32;0.20;;;0.20;;